Buck Creek, Indiana
Current Conditions -  °F | °C
As of 4:54 PM on Monday 20 Oct 2014 (Local Time) from KLAF Reporting Station
Few Clouds Few Clouds  
Wind Chill: 66°   Ceiling: Unl
Heat Index: 66°   Visibility: 10mi
Dew Point: 48°   Wind: 13mph
Humidity: 52%   Direction: 310°NW
Pressure: 29.84"   Gusts: NA
Location:  40.49°N, 86.76°W
Report Text: KLAF 202054Z 31011KT 10SM FEW065 19/09 A2984 RMK AO2 SLP103 T01890089 53001
Loading
Personal Weather Stations






























Interactive Weather Map New forecast layout! Learn more

10-Day Weather Forecast

Advertisements
Track Severe Weather on mobile